Time;durP1;ratioP1;P1;durP2;ratioP2;P2;SDS_P1;SDS_P2;PMS_P1;PMS_P2;Temp;Humidity;BMP_temperature;BMP_pressure;BME280_temperature;BME280_humidity;BME280_pressure;Samples;Min_cycle;Max_cycle;Signal;HPM_P1;HPM_P2
2022/04/14 00:02:23;;;;;;;;;;;;;;;8.61;65.42;100081.94;4863194;29;19932;-70
2022/04/14 00:04:53;;;;;;;;;;;;;;;8.59;64.68;100085.34;4846593;29;19924;-71
2022/04/14 00:07:22;;;;;;;;;;;;;;;8.57;64.50;100080.22;4863419;29;20397;-71
2022/04/14 00:09:51;;;;;;;;;;;;;;;8.58;63.84;100073.44;4863299;29;19990;-70
2022/04/14 00:12:19;;;;;;;;;;;;;;;8.56;64.41;100081.06;4863331;29;19946;-70
2022/04/14 00:14:48;;;;;;;;;;;;;;;8.56;64.31;100081.06;4846465;29;19924;-71
2022/04/14 00:17:16;;;;;;;;;;;;;;;8.51;64.88;100082.69;4862923;29;19978;-70
2022/04/14 00:19:45;;;;;;;;;;;;;;;8.50;64.71;100090.28;4862790;29;20022;-70
2022/04/14 00:22:15;;;;;;;;;;;;;;;8.47;64.57;100082.63;4862830;29;19935;-71
2022/04/14 00:24:44;;;;;;;;;;;;;;;8.42;65.07;100084.25;4863146;29;19932;-70
2022/04/14 00:27:13;;;;;;;;;;;;;;;8.40;64.79;100078.25;4862753;29;19924;-70
2022/04/14 00:29:41;;;;;;;;;;;;;;;8.41;65.14;100085.06;4863190;29;19947;-70
2022/04/14 00:32:10;;;;;;;;;;;;;;;8.39;64.54;100074.88;4862677;29;19931;-70
2022/04/14 00:34:39;;;;;;;;;;;;;;;8.37;65.08;100079.09;4862377;29;20011;-70
2022/04/14 00:37:09;;;;;;;;;;;;;;;8.29;64.89;100077.25;4846236;29;20015;-70
2022/04/14 00:39:39;;;;;;;;;;;;;;;8.21;65.17;100081.31;4862554;29;20015;-70
2022/04/14 00:42:09;;;;;;;;;;;;;;;8.21;65.00;100081.31;4863244;29;19924;-70
2022/04/14 00:44:38;;;;;;;;;;;;;;;8.19;65.21;100085.53;4863088;29;19973;-71
2022/04/14 00:47:07;;;;;;;;;;;;;;;8.15;65.34;100086.34;4862471;29;19959;-70
2022/04/14 00:49:36;;;;;;;;;;;;;;;8.16;65.40;100098.22;4846024;29;19928;-70
2022/04/14 00:52:05;;;;;;;;;;;;;;;8.13;64.92;100095.63;4862338;29;19924;-70
2022/04/14 00:54:34;;;;;;;;;;;;;;;8.04;64.58;100098.88;4862259;29;19928;-70
2022/04/14 00:57:05;;;;;;;;;;;;;;;8.06;64.60;100097.22;4862196;29;19931;-70
2022/04/14 00:59:34;;;;;;;;;;;;;;;8.02;65.59;100095.44;4862597;29;19924;-70
2022/04/14 01:02:04;;;;;;;;;;;;;;;7.92;64.89;100096.97;4862250;29;19924;-70
2022/04/14 01:04:32;;;;;;;;;;;;;;;7.86;65.34;100094.34;4862123;29;19967;-70
2022/04/14 01:07:01;;;;;;;;;;;;;;;7.82;65.99;100087.50;4862399;29;19928;-70
2022/04/14 01:09:30;;;;;;;;;;;;;;;7.84;66.18;100085.00;4861940;29;19924;-70
2022/04/14 01:11:59;;;;;;;;;;;;;;;7.82;65.46;100087.50;4862588;29;19947;-70
2022/04/14 01:14:29;;;;;;;;;;;;;;;7.87;64.98;100090.97;4862300;29;19924;-70
2022/04/14 01:16:59;;;;;;;;;;;;;;;7.85;65.02;100096.84;4862177;29;20450;-70
2022/04/14 01:19:28;;;;;;;;;;;;;;;7.81;65.39;100095.97;4861889;29;20058;-70
2022/04/14 01:22:00;;;;;;;;;;;;;;;7.84;65.89;100090.94;4861879;29;19924;-70
2022/04/14 01:24:31;;;;;;;;;;;;;;;7.82;65.71;100091.75;4862210;29;20375;-70
2022/04/14 01:27:01;;;;;;;;;;;;;;;7.70;65.47;100097.44;4862313;29;19924;-70
2022/04/14 01:29:29;;;;;;;;;;;;;;;7.71;65.86;100094.09;4861975;29;20256;-70
2022/04/14 01:32:00;;;;;;;;;;;;;;;7.66;65.38;100100.78;4861072;29;19924;-70
2022/04/14 01:34:30;;;;;;;;;;;;;;;7.54;65.45;100099.69;4862111;29;19931;-70
2022/04/14 01:37:00;;;;;;;;;;;;;;;7.48;65.87;100100.47;4861481;29;19932;-70
2022/04/14 01:39:29;;;;;;;;;;;;;;;7.39;66.65;100100.25;4861958;29;19924;-70
2022/04/14 01:41:59;;;;;;;;;;;;;;;7.38;67.05;100101.09;4861599;29;19924;-70
2022/04/14 01:44:28;;;;;;;;;;;;;;;7.41;66.75;100098.63;4861652;29;19960;-70
2022/04/14 01:46:56;;;;;;;;;;;;;;;7.44;66.56;100113.91;4861639;29;19924;-70
2022/04/14 01:49:25;;;;;;;;;;;;;;;7.50;66.41;100106.41;4861812;29;19968;-70
2022/04/14 01:51:53;;;;;;;;;;;;;;;7.57;66.18;100105.69;4861578;29;19934;-70
2022/04/14 01:54:22;;;;;;;;;;;;;;;7.53;66.29;100098.00;4861486;29;19924;-70
2022/04/14 01:56:51;;;;;;;;;;;;;;;7.51;66.21;100100.50;4861424;29;19924;-70
2022/04/14 01:59:21;;;;;;;;;;;;;;;7.51;66.52;100097.13;4861468;29;19931;-70
2022/04/14 02:01:50;;;;;;;;;;;;;;;7.51;65.76;100100.50;4861538;29;19924;-71
2022/04/14 02:04:19;;;;;;;;;;;;;;;7.48;66.35;100100.47;4861716;29;20016;-70
2022/04/14 02:06:47;;;;;;;;;;;;;;;7.47;65.66;100096.19;4861741;29;19931;-70
2022/04/14 02:09:16;;;;;;;;;;;;;;;7.46;66.50;100093.63;4861529;29;19924;-71
2022/04/14 02:11:44;;;;;;;;;;;;;;;7.43;66.31;100096.97;4844814;29;19963;-70
2022/04/14 02:14:13;;;;;;;;;;;;;;;7.42;66.20;100090.16;4845187;29;19947;-70
2022/04/14 02:16:43;;;;;;;;;;;;;;;7.41;66.17;100088.47;4861336;29;19924;-70
2022/04/14 02:19:12;;;;;;;;;;;;;;;7.42;66.29;100085.09;4861334;29;19927;-70
2022/04/14 02:21:40;;;;;;;;;;;;;;;7.44;66.21;100089.38;4861316;29;19967;-70
2022/04/14 02:24:09;;;;;;;;;;;;;;;7.35;66.21;100086.66;4861369;29;19995;-70
2022/04/14 02:26:37;;;;;;;;;;;;;;;7.32;66.24;100093.38;4861249;29;19924;-70
2022/04/14 02:29:06;;;;;;;;;;;;;;;7.32;65.95;100089.16;4861481;29;19931;-70
2022/04/14 02:31:34;;;;;;;;;;;;;;;7.24;66.20;100094.91;4861188;29;19924;-70
2022/04/14 02:34:06;;;;;;;;;;;;;;;7.13;67.03;100096.38;4861623;29;19935;-70
2022/04/14 02:36:35;;;;;;;;;;;;;;;6.98;67.25;100094.38;4861535;29;19936;-70
2022/04/14 02:39:04;;;;;;;;;;;;;;;6.94;67.42;100094.28;4844636;29;19924;-70
2022/04/14 02:41:32;;;;;;;;;;;;;;;6.90;67.57;100097.59;4861139;29;19924;-70
2022/04/14 02:44:01;;;;;;;;;;;;;;;6.88;67.79;100089.13;4863444;29;19952;-70
2022/04/14 02:46:29;;;;;;;;;;;;;;;6.90;67.47;100097.59;4864867;29;19930;-70
2022/04/14 02:48:58;;;;;;;;;;;;;;;6.89;67.75;100090.81;4864505;29;20381;-70
2022/04/14 02:51:28;;;;;;;;;;;;;;;6.89;67.66;100091.66;4864407;29;19927;-70
2022/04/14 02:53:56;;;;;;;;;;;;;;;6.92;67.39;100093.41;4864730;29;20382;-70
2022/04/14 02:56:25;;;;;;;;;;;;;;;6.83;67.32;100086.47;4864575;29;20378;-70
2022/04/14 02:58:53;;;;;;;;;;;;;;;6.80;67.60;100077.94;4848010;29;19956;-70
2022/04/14 03:01:22;;;;;;;;;;;;;;;6.77;67.87;100086.34;4864650;29;19924;-70
2022/04/14 03:03:51;;;;;;;;;;;;;;;6.82;67.97;100088.97;4864246;29;19924;-70
2022/04/14 03:06:20;;;;;;;;;;;;;;;6.84;68.11;100087.34;4864192;29;19931;-70
2022/04/14 03:08:50;;;;;;;;;;;;;;;6.86;68.00;100085.69;4847914;29;19924;-70
2022/04/14 03:11:18;;;;;;;;;;;;;;;6.85;67.68;100083.97;4864344;29;19924;-70
2022/04/14 03:13:47;;;;;;;;;;;;;;;6.77;68.09;100090.59;4864322;29;19947;-70
2022/04/14 03:16:16;;;;;;;;;;;;;;;6.76;67.53;100089.72;4864281;29;20442;-70
2022/04/14 03:18:45;;;;;;;;;;;;;;;6.77;67.85;100091.41;4864015;29;19952;-70
2022/04/14 03:21:13;;;;;;;;;;;;;;;6.72;67.78;100083.72;4863867;29;19923;-70
2022/04/14 03:23:42;;;;;;;;;;;;;;;6.75;68.28;100078.72;4863865;29;19931;-70
2022/04/14 03:26:12;;;;;;;;;;;;;;;6.75;68.06;100078.72;4863822;29;19924;-70
2022/04/14 03:28:40;;;;;;;;;;;;;;;6.77;68.02;100078.72;4864150;29;19924;-70
2022/04/14 03:31:10;;;;;;;;;;;;;;;6.82;68.03;100081.34;4863661;29;20367;-70
2022/04/14 03:33:39;;;;;;;;;;;;;;;6.80;67.72;100080.47;4863702;29;19972;-70
2022/04/14 03:36:07;;;;;;;;;;;;;;;6.74;68.04;100077.00;4863401;29;19930;-70
2022/04/14 03:38:36;;;;;;;;;;;;;;;6.75;68.46;100077.84;4863568;29;19928;-70
2022/04/14 03:41:06;;;;;;;;;;;;;;;6.77;68.11;100088.03;4863513;29;19924;-70
2022/04/14 03:43:36;;;;;;;;;;;;;;;6.77;68.38;100091.41;4863603;29;19924;-70
2022/04/14 03:46:05;;;;;;;;;;;;;;;6.75;68.02;100081.25;4863540;29;19924;-70
2022/04/14 03:48:34;;;;;;;;;;;;;;;6.72;68.23;100083.72;4847206;29;19930;-70
2022/04/14 03:51:04;;;;;;;;;;;;;;;6.72;68.22;100083.72;4863561;29;19928;-70
2022/04/14 03:53:32;;;;;;;;;;;;;;;6.77;68.39;100075.38;4863672;29;20015;-70
2022/04/14 03:56:01;;;;;;;;;;;;;;;6.80;68.24;100088.09;4862848;29;20378;-70
2022/04/14 03:58:29;;;;;;;;;;;;;;;6.80;68.05;100083.00;4863390;29;20018;-70
2022/04/14 04:00:59;;;;;;;;;;;;;;;6.79;67.97;100081.31;4863409;29;20286;-70
2022/04/14 04:03:28;;;;;;;;;;;;;;;6.79;68.27;100088.94;4863548;29;19924;-70
2022/04/14 04:05:57;;;;;;;;;;;;;;;6.81;67.93;100087.28;4863189;29;19972;-70
2022/04/14 04:08:26;;;;;;;;;;;;;;;6.78;67.81;100082.13;4863047;29;20023;-70
2022/04/14 04:10:55;;;;;;;;;;;;;;;6.77;67.77;100093.13;4863772;29;19924;-70
2022/04/14 04:13:23;;;;;;;;;;;;;;;6.82;68.19;100088.97;4862963;29;19931;-70
2022/04/14 04:15:52;;;;;;;;;;;;;;;6.85;68.25;100094.13;4862961;29;19924;-70
2022/04/14 04:18:22;;;;;;;;;;;;;;;6.89;67.71;100093.34;4863240;29;20406;-70
2022/04/14 04:20:50;;;;;;;;;;;;;;;6.88;67.79;100094.19;4862938;29;19924;-70
2022/04/14 04:23:19;;;;;;;;;;;;;;;6.92;67.61;100095.94;4863160;29;20361;-70
2022/04/14 04:25:49;;;;;;;;;;;;;;;6.91;68.00;100104.41;4863137;29;19924;-70
2022/04/14 04:28:18;;;;;;;;;;;;;;;6.92;68.10;100096.81;4863113;29;19952;-70
2022/04/14 04:30:46;;;;;;;;;;;;;;;6.98;68.05;100103.72;4862734;29;19935;-70
2022/04/14 04:33:15;;;;;;;;;;;;;;;7.01;67.88;100104.59;4846029;29;19931;-70
2022/04/14 04:35:45;;;;;;;;;;;;;;;7.03;67.71;100104.66;4862459;29;19924;-70
2022/04/14 04:38:14;;;;;;;;;;;;;;;7.06;68.53;100110.63;4862926;29;19947;-70
2022/04/14 04:40:42;;;;;;;;;;;;;;;7.11;68.50;100103.09;4863784;29;19931;-70
2022/04/14 04:43:13;;;;;;;;;;;;;;;7.17;68.30;100098.16;4846041;29;19928;-70
2022/04/14 04:45:42;;;;;;;;;;;;;;;7.21;68.26;100105.88;4862785;29;19982;-70
2022/04/14 04:48:11;;;;;;;;;;;;;;;7.26;68.08;100108.50;4862435;29;19924;-70
2022/04/14 04:50:40;;;;;;;;;;;;;;;7.34;68.03;100109.50;4862294;29;19924;-70
2022/04/14 04:53:10;;;;;;;;;;;;;;;7.36;67.71;100105.31;4862296;29;19931;-70
2022/04/14 04:55:40;;;;;;;;;;;;;;;7.38;68.27;100113.81;4862583;29;20382;-70
2022/04/14 04:58:09;;;;;;;;;;;;;;;7.46;67.77;100113.94;4862216;29;19930;-70
2022/04/14 05:00:38;;;;;;;;;;;;;;;7.50;68.18;100114.03;4862194;29;20027;-70
2022/04/14 05:03:09;;;;;;;;;;;;;;;7.61;67.64;100111.66;4862095;29;19987;-70
2022/04/14 05:05:37;;;;;;;;;;;;;;;7.66;67.83;100110.94;4862138;29;19980;-70
2022/04/14 05:08:07;;;;;;;;;;;;;;;7.74;67.68;100117.00;4862023;29;19930;-70
2022/04/14 05:10:37;;;;;;;;;;;;;;;7.82;68.50;100117.97;4862303;29;19924;-70
2022/04/14 05:13:06;;;;;;;;;;;;;;;7.96;67.77;100115.69;4862301;29;20286;-70
2022/04/14 05:15:35;;;;;;;;;;;;;;;8.11;68.67;100121.88;4862047;29;19931;-70
2022/04/14 05:18:04;;;;;;;;;;;;;;;8.26;68.26;100121.28;4861999;29;20020;-70
2022/04/14 05:20:34;;;;;;;;;;;;;;;8.37;67.38;100121.47;4845601;29;19923;-70
2022/04/14 05:23:03;;;;;;;;;;;;;;;8.45;67.92;100122.41;4862287;29;19964;-70
2022/04/14 05:25:32;;;;;;;;;;;;;;;8.56;67.60;100120.91;4845224;29;20282;-70
2022/04/14 05:28:03;;;;;;;;;;;;;;;8.67;66.82;100124.44;4862267;29;19972;-70
2022/04/14 05:30:31;;;;;;;;;;;;;;;8.72;66.21;100121.13;4861842;29;19947;-71
2022/04/14 05:33:00;;;;;;;;;;;;;;;8.79;66.55;100119.53;4845084;29;20337;-70
2022/04/14 05:35:29;;;;;;;;;;;;;;;8.88;66.16;100122.19;4861396;29;19928;-70
2022/04/14 05:37:58;;;;;;;;;;;;;;;8.99;66.05;100123.19;4861931;29;19964;-70
2022/04/14 05:40:26;;;;;;;;;;;;;;;9.04;66.09;100119.00;4845364;29;19924;-70
2022/04/14 05:42:55;;;;;;;;;;;;;;;9.12;66.20;100119.94;4861899;29;19924;-71
2022/04/14 05:45:26;;;;;;;;;;;;;;;9.19;65.96;100121.72;4845370;29;19951;-70
2022/04/14 05:47:54;;;;;;;;;;;;;;;9.19;65.45;100115.81;4862041;29;19931;-71
2022/04/14 05:50:23;;;;;;;;;;;;;;;9.21;65.50;100120.03;4862373;29;19924;-71
2022/04/14 05:52:51;;;;;;;;;;;;;;;9.29;65.09;100115.91;4861543;29;20010;-71
2022/04/14 05:55:20;;;;;;;;;;;;;;;9.41;65.57;100123.69;4861754;29;19923;-70
2022/04/14 05:57:48;;;;;;;;;;;;;;;9.55;65.06;100121.28;4861807;29;19928;-71
2022/04/14 06:00:17;;;;;;;;;;;;;;;9.62;65.15;100119.66;4861815;29;19924;-71
2022/04/14 06:02:47;;;;;;;;;;;;;;;9.72;65.30;100124.00;4861788;29;19947;-70
2022/04/14 06:05:16;;;;;;;;;;;;;;;9.76;64.96;100125.75;4861430;29;20015;-71
2022/04/14 06:07:44;;;;;;;;;;;;;;;9.83;64.67;100117.31;4861967;29;20282;-71
2022/04/14 06:10:16;;;;;;;;;;;;;;;9.84;64.12;100119.00;4861346;29;19924;-71
2022/04/14 06:12:45;;;;;;;;;;;;;;;9.87;64.25;100114.81;4861542;29;19924;-71
2022/04/14 06:15:14;;;;;;;;;;;;;;;9.95;64.18;100113.19;4861315;29;19925;-71
2022/04/14 06:17:43;;;;;;;;;;;;;;;10.05;63.73;100114.94;4862088;29;19924;-71
2022/04/14 06:20:14;;;;;;;;;;;;;;;10.13;63.72;100107.41;4865279;29;19928;-71
2022/04/14 06:22:43;;;;;;;;;;;;;;;10.25;63.05;100112.59;4864961;29;19980;-71
2022/04/14 06:25:13;;;;;;;;;;;;;;;10.37;62.86;100117.78;4864949;29;19923;-71
2022/04/14 06:27:42;;;;;;;;;;;;;;;10.44;62.57;100119.53;4865183;29;19931;-71
2022/04/14 06:30:12;;;;;;;;;;;;;;;10.48;62.19;100105.97;4865224;29;20348;-71
2022/04/14 06:32:41;;;;;;;;;;;;;;;10.50;61.96;100106.84;4864795;29;19947;-71
2022/04/14 06:35:15;;;;;;;;;;;;;;;10.55;62.07;100102.63;4864468;29;19994;-71
2022/04/14 06:37:45;;;;;;;;;;;;;;;10.59;62.06;100109.44;4864799;29;20007;-71
2022/04/14 06:40:13;;;;;;;;;;;;;;;10.62;62.07;100104.34;4865258;29;19924;-71
2022/04/14 06:42:59;;;;;;;;;;;;;;;10.73;62.04;100101.84;4864774;29;20404;-71
2022/04/14 06:45:30;;;;;;;;;;;;;;;10.81;61.60;100107.00;4864918;29;20350;-71
2022/04/14 06:47:59;;;;;;;;;;;;;;;11.00;61.32;100103.69;4864525;29;20274;-71
2022/04/14 06:50:28;;;;;;;;;;;;;;;11.12;61.34;100101.19;4847960;29;19924;-71
2022/04/14 06:52:58;;;;;;;;;;;;;;;11.17;61.15;100100.34;4845776;29;20134;-71
2022/04/14 06:55:27;;;;;;;;;;;;;;;11.32;61.37;100099.56;4853641;29;19931;-71
2022/04/14 06:57:58;;;;;;;;;;;;;;;11.37;61.06;100102.97;4853741;29;19981;-72
2022/04/14 07:00:27;;;;;;;;;;;;;;;11.40;61.00;100108.06;4856105;29;19930;-71
2022/04/14 07:02:56;;;;;;;;;;;;;;;11.49;61.20;100103.00;4864366;29;20286;-71
2022/04/14 07:05:26;;;;;;;;;;;;;;;11.61;60.97;100103.03;4864419;29;19924;-71
2022/04/14 07:07:55;;;;;;;;;;;;;;;11.73;59.88;100103.09;4864635;29;19924;-71
2022/04/14 07:10:27;;;;;;;;;;;;;;;11.79;59.83;100103.09;4847934;29;20264;-71
2022/04/14 07:12:56;;;;;;;;;;;;;;;11.84;59.36;100109.06;4863200;29;20390;-71
2022/04/14 07:15:25;;;;;;;;;;;;;;;11.91;59.19;100108.22;4863176;29;20383;-71
2022/04/14 07:17:53;;;;;;;;;;;;;;;12.12;58.83;100103.97;4857931;29;19928;-72
2022/04/14 07:20:23;;;;;;;;;;;;;;;12.34;59.26;100103.06;4863986;29;20389;-71
2022/04/14 07:22:52;;;;;;;;;;;;;;;12.43;58.98;100097.97;4864334;29;19924;-71
2022/04/14 07:25:28;;;;;;;;;;;;;;;12.47;57.76;100100.50;4863866;29;20378;-71
2022/04/14 07:27:59;;;;;;;;;;;;;;;12.44;56.81;100104.78;4863881;29;19924;-72
2022/04/14 07:30:27;;;;;;;;;;;;;;;12.41;56.89;100105.63;4862628;29;20371;-71
2022/04/14 07:32:56;;;;;;;;;;;;;;;12.49;57.31;100108.19;4863634;29;20416;-71
2022/04/14 07:35:25;;;;;;;;;;;;;;;12.58;57.44;100108.16;4862748;29;19924;-72
2022/04/14 07:37:54;;;;;;;;;;;;;;;12.64;57.51;100103.03;4857537;29;19946;-71
2022/04/14 07:40:24;;;;;;;;;;;;;;;12.73;57.30;100103.88;4863592;29;19936;-71
2022/04/14 07:42:56;;;;;;;;;;;;;;;12.83;57.36;100103.84;4847045;29;20424;-70
2022/04/14 07:45:25;;;;;;;;;;;;;;;12.93;57.02;100106.38;4863514;29;19959;-72
2022/04/14 07:47:54;;;;;;;;;;;;;;;12.99;56.26;100108.91;4863460;29;19930;-71
2022/04/14 07:50:24;;;;;;;;;;;;;;;13.00;55.99;100107.19;4861621;29;19955;-71
2022/04/14 07:52:54;;;;;;;;;;;;;;;13.03;55.56;100105.47;4863618;29;19946;-71
2022/04/14 07:55:24;;;;;;;;;;;;;;;13.10;55.22;100103.78;4862049;29;19924;-71
2022/04/14 07:57:55;;;;;;;;;;;;;;;13.16;54.81;100114.84;4862204;29;19927;-71
2022/04/14 08:00:25;;;;;;;;;;;;;;;13.17;54.67;100111.41;4856523;29;19924;-71
2022/04/14 08:02:56;;;;;;;;;;;;;;;13.25;54.44;100113.94;4845078;29;19963;-71
2022/04/14 08:05:29;;;;;;;;;;;;;;;13.53;54.67;100120.66;4844751;29;19924;-70
2022/04/14 08:07:58;;;;;;;;;;;;;;;13.74;54.36;100110.25;4844679;29;20045;-71
2022/04/14 08:10:26;;;;;;;;;;;;;;;13.86;54.36;100119.59;4845051;29;19924;-71
2022/04/14 08:12:57;;;;;;;;;;;;;;;13.88;53.89;100122.97;4844579;29;20023;-72
2022/04/14 08:15:27;;;;;;;;;;;;;;;13.95;54.27;100119.50;4851491;29;19956;-71
2022/04/14 08:17:57;;;;;;;;;;;;;;;14.28;54.48;100114.09;4862008;29;19928;-71
2022/04/14 08:20:26;;;;;;;;;;;;;;;14.52;53.87;100119.03;4850469;29;19924;-71
2022/04/14 08:22:55;;;;;;;;;;;;;;;14.81;53.08;100123.03;4848397;29;20011;-71
2022/04/14 08:25:25;;;;;;;;;;;;;;;15.12;52.24;100117.53;4844381;29;19924;-72
2022/04/14 08:27:55;;;;;;;;;;;;;;;15.41;51.84;100119.72;4844718;29;20403;-71
2022/04/14 08:30:26;;;;;;;;;;;;;;;15.34;49.81;100107.81;4847013;29;19925;-71
2022/04/14 08:32:55;;;;;;;;;;;;;;;15.23;49.44;100119.97;4852791;29;20439;-71
2022/04/14 08:35:25;;;;;;;;;;;;;;;15.38;50.19;100106.91;4855473;29;20011;-71
2022/04/14 08:37:53;;;;;;;;;;;;;;;15.54;50.26;100111.03;4846600;29;19951;-71
2022/04/14 08:40:22;;;;;;;;;;;;;;;15.56;50.33;100109.28;4863077;29;19924;-72
2022/04/14 08:42:53;;;;;;;;;;;;;;;15.67;50.41;100112.53;4862583;29;19928;-71
2022/04/14 08:45:23;;;;;;;;;;;;;;;15.78;49.44;100113.25;4862877;29;19931;-70
2022/04/14 08:47:53;;;;;;;;;;;;;;;15.67;48.51;100106.56;4860320;29;19935;-71
2022/04/14 08:50:23;;;;;;;;;;;;;;;15.76;48.90;100106.41;4862439;29;19973;-71
2022/04/14 08:52:52;;;;;;;;;;;;;;;15.93;49.17;100105.25;4846096;29;19927;-71
2022/04/14 08:55:20;;;;;;;;;;;;;;;15.91;47.95;100107.00;4860903;29;19928;-70
2022/04/14 08:57:49;;;;;;;;;;;;;;;15.95;48.08;100102.69;4862699;29;19923;-71
2022/04/14 09:00:18;;;;;;;;;;;;;;;16.15;48.30;100107.53;4856449;29;19924;-70
2022/04/14 09:02:47;;;;;;;;;;;;;;;16.31;48.48;100096.94;4844718;29;19976;-70
2022/04/14 09:05:17;;;;;;;;;;;;;;;16.57;48.56;100096.50;4862118;29;19924;-71
2022/04/14 09:07:47;;;;;;;;;;;;;;;16.79;48.71;100097.78;4862172;29;19924;-71
2022/04/14 09:10:16;;;;;;;;;;;;;;;16.97;47.72;100091.41;4862112;29;19924;-71
2022/04/14 09:12:45;;;;;;;;;;;;;;;17.10;46.81;100090.28;4861950;29;19972;-70
2022/04/14 09:15:15;;;;;;;;;;;;;;;17.09;46.01;100094.59;4860612;29;19972;-70
2022/04/14 09:17:44;;;;;;;;;;;;;;;17.00;45.77;100093.94;4851973;29;19940;-71
2022/04/14 09:20:24;;;;;;;;;;;;;;;17.07;45.93;100091.22;4861817;29;19924;-71
2022/04/14 09:23:09;;;;;;;;;;;;;;;17.06;44.10;100089.50;4855858;29;19931;-71
2022/04/14 09:25:38;;;;;;;;;;;;;;;17.11;44.76;100087.66;4848227;29;19924;-70
2022/04/14 09:28:10;;;;;;;;;;;;;;;17.11;43.98;100091.97;4843647;29;19931;-70
2022/04/14 09:30:39;;;;;;;;;;;;;;;17.11;44.48;100087.66;4843244;29;19925;-69
2022/04/14 09:33:15;;;;;;;;;;;;;;;17.13;43.36;100090.25;4843667;29;19924;-71
2022/04/14 09:36:10;;;;;;;;;;;;;;;17.25;42.71;100080.50;4861308;29;20006;-72
2022/04/14 09:38:50;;;;;;;;;;;;;;;17.52;42.55;100083.38;4861688;29;20329;-70
2022/04/14 09:41:29;;;;;;;;;;;;;;;17.83;41.79;100074.91;4861937;29;19949;-70
2022/04/14 09:44:00;;;;;;;;;;;;;;;17.89;40.18;100068.75;4854470;29;20036;-70
2022/04/14 09:46:29;;;;;;;;;;;;;;;18.06;39.86;100071.78;4849592;29;19960;-69
2022/04/14 09:49:05;;;;;;;;;;;;;;;18.12;38.76;100066.44;4843453;29;19924;-69
2022/04/14 09:51:35;;;;;;;;;;;;;;;18.14;38.97;100074.16;4843091;29;20024;-72
2022/04/14 09:54:05;;;;;;;;;;;;;;;18.25;38.72;100070.41;4842831;29;20279;-70
2022/04/14 09:56:40;;;;;;;;;;;;;;;18.21;38.53;100061.03;4843433;29;20015;-71
2022/04/14 09:59:12;;;;;;;;;;;;;;;18.36;38.94;100064.94;4827174;29;20442;-71
2022/04/14 10:01:41;;;;;;;;;;;;;;;18.42;38.08;100063.06;4843152;29;19930;-72
2022/04/14 10:04:28;;;;;;;;;;;;;;;18.48;36.50;100065.50;4844482;29;19963;-73
2022/04/14 10:07:06;;;;;;;;;;;;;;;18.43;35.60;100062.16;4861410;29;20018;-72
2022/04/14 10:09:35;;;;;;;;;;;;;;;18.63;35.94;100067.69;4861287;29;19924;-71
2022/04/14 10:12:05;;;;;;;;;;;;;;;18.88;35.74;100060.13;4860762;29;19924;-71
2022/04/14 10:14:35;;;;;;;;;;;;;;;18.97;35.10;100056.41;4861422;29;20287;-71
2022/04/14 10:17:05;;;;;;;;;;;;;;;19.13;34.98;100052.47;4861380;29;19976;-70
2022/04/14 10:19:35;;;;;;;;;;;;;;;19.14;35.17;100051.59;4860188;29;19924;-69
2022/04/14 10:22:05;;;;;;;;;;;;;;;19.16;33.69;100044.63;4861497;29;19931;-72
2022/04/14 10:24:35;;;;;;;;;;;;;;;19.15;33.06;100048.09;4861253;29;19931;-70
2022/04/14 10:27:06;;;;;;;;;;;;;;;19.00;33.65;100045.97;4861479;29;19924;-70
2022/04/14 10:29:37;;;;;;;;;;;;;;;19.11;33.01;100038.72;4860722;29;19924;-69
2022/04/14 10:32:06;;;;;;;;;;;;;;;19.25;33.01;100040.03;4852820;29;19925;-70
2022/04/14 10:34:35;;;;;;;;;;;;;;;19.39;32.61;100032.72;4842958;29;19924;-69
2022/04/14 10:37:07;;;;;;;;;;;;;;;19.47;33.76;100029.88;4850427;29;19924;-71
2022/04/14 10:39:38;;;;;;;;;;;;;;;19.48;33.23;100026.41;4861091;29;19923;-69
2022/04/14 10:42:09;;;;;;;;;;;;;;;19.57;33.08;100023.53;4861472;29;20290;-70
2022/04/14 10:44:46;;;;;;;;;;;;;;;19.79;33.50;100027.13;4861532;29;19928;-70
2022/04/14 10:47:29;;;;;;;;;;;;;;;19.98;33.53;100017.00;4845077;29;20020;-70
2022/04/14 10:49:58;;;;;;;;;;;;;;;20.16;33.19;100012.91;4861478;29;20435;-70
2022/04/14 10:52:32;;;;;;;;;;;;;;;20.14;31.64;100012.13;4861351;29;19967;-70
2022/04/14 10:55:02;;;;;;;;;;;;;;;20.26;31.88;100007.41;4860945;29;19931;-69
2022/04/14 10:57:37;;;;;;;;;;;;;;;20.39;32.21;100008.69;4860990;29;19924;-70
2022/04/14 11:00:17;;;;;;;;;;;;;;;20.26;32.19;100016.91;4844630;29;19931;-69
2022/04/14 11:02:56;;;;;;;;;;;;;;;20.24;32.17;100003.16;4844740;29;19950;-70
2022/04/14 11:05:35;;;;;;;;;;;;;;;20.34;32.36;99996.78;4863801;29;20022;-70
2022/04/14 11:08:15;;;;;;;;;;;;;;;20.52;32.85;100001.28;4864354;29;19927;-71
2022/04/14 11:10:54;;;;;;;;;;;;;;;20.40;31.69;100001.72;4864126;29;20023;-70
2022/04/14 11:13:23;;;;;;;;;;;;;;;20.23;31.22;100006.69;4864358;29;19935;-71
2022/04/14 11:15:52;;;;;;;;;;;;;;;20.29;31.07;99998.69;4863963;29;19930;-71
2022/04/14 11:18:21;;;;;;;;;;;;;;;20.21;31.74;100004.09;4863902;29;20440;-71
2022/04/14 11:20:56;;;;;;;;;;;;;;;20.37;32.23;99999.25;4863936;29;19924;-71
2022/04/14 11:23:26;;;;;;;;;;;;;;;20.42;31.93;99998.19;4863920;29;19924;-71
2022/04/14 11:26:08;;;;;;;;;;;;;;;20.55;31.79;99999.44;4863871;29;19955;-71
2022/04/14 11:28:37;;;;;;;;;;;;;;;20.47;31.61;99992.81;4864069;29;19924;-71
2022/04/14 11:31:06;;;;;;;;;;;;;;;20.55;30.67;99988.22;4846445;29;19931;-72
2022/04/14 11:33:43;;;;;;;;;;;;;;;20.63;30.40;99991.38;4847642;29;20295;-70
2022/04/14 11:36:13;;;;;;;;;;;;;;;20.77;31.00;99991.72;4864035;29;19931;-71
2022/04/14 11:38:57;;;;;;;;;;;;;;;20.84;31.59;99997.53;4882214;29;19928;-71
2022/04/14 11:41:34;;;;;;;;;;;;;;;20.89;31.25;99993.00;4870496;29;19927;-70
2022/04/14 11:44:04;;;;;;;;;;;;;;;20.78;30.00;99995.16;4867531;29;20332;-70
2022/04/14 11:46:33;;;;;;;;;;;;;;;20.58;29.93;99982.94;4874201;29;19931;-71
2022/04/14 11:49:02;;;;;;;;;;;;;;;20.62;29.54;99989.69;4863845;29;19931;-70
2022/04/14 11:51:30;;;;;;;;;;;;;;;20.66;28.76;99986.06;4863474;29;19924;-70
2022/04/14 11:53:59;;;;;;;;;;;;;;;20.64;28.90;99988.72;4870109;29;19924;-70
2022/04/14 11:56:53;;;;;;;;;;;;;;;20.61;29.21;99980.22;4881712;29;19923;-71
2022/04/14 11:59:30;;;;;;;;;;;;;;;20.69;29.85;99973.00;4881696;29;20028;-70
2022/04/14 12:02:00;;;;;;;;;;;;;;;20.86;29.76;99972.34;4865293;29;19930;-70
2022/04/14 12:04:34;;;;;;;;;;;;;;;21.14;29.32;99960.06;4854667;29;19925;-70
2022/04/14 12:07:04;;;;;;;;;;;;;;;21.18;29.81;99965.06;4845051;29;20378;-71
2022/04/14 12:09:32;;;;;;;;;;;;;;;21.17;29.62;99963.38;4844869;29;20284;-71
2022/04/14 12:12:10;;;;;;;;;;;;;;;21.21;28.75;99954.53;4844577;29;19925;-71
2022/04/14 12:14:43;;;;;;;;;;;;;;;21.23;29.27;99957.94;4861936;29;20318;-71
2022/04/14 12:17:11;;;;;;;;;;;;;;;21.22;28.63;99961.44;4862410;29;19924;-70
2022/04/14 12:19:40;;;;;;;;;;;;;;;21.23;27.67;99952.75;4858478;29;20359;-70
2022/04/14 12:22:09;;;;;;;;;;;;;;;21.31;27.84;99950.66;4868192;29;19923;-70
2022/04/14 12:24:38;;;;;;;;;;;;;;;21.41;26.82;99950.28;4881763;29;19930;-71
2022/04/14 12:27:08;;;;;;;;;;;;;;;21.38;27.80;99947.84;4881946;29;19924;-70
2022/04/14 12:29:43;;;;;;;;;;;;;;;21.30;27.85;99943.81;4881404;29;19927;-70
2022/04/14 12:32:13;;;;;;;;;;;;;;;21.42;28.21;99937.28;4881584;29;20339;-70
2022/04/14 12:34:42;;;;;;;;;;;;;;;21.50;27.67;99936.97;4881205;29;19923;-70
2022/04/14 12:37:13;;;;;;;;;;;;;;;21.45;27.42;99931.09;4880929;29;20026;-71
2022/04/14 12:39:52;;;;;;;;;;;;;;;21.49;26.71;99928.31;4881246;29;19927;-70
2022/04/14 12:42:21;;;;;;;;;;;;;;;21.66;26.76;99922.41;4881512;29;19923;-70
2022/04/14 12:44:51;;;;;;;;;;;;;;;21.70;26.97;99913.56;4880963;29;20026;-71
2022/04/14 12:47:28;;;;;;;;;;;;;;;21.68;27.78;99923.19;4881125;29;19954;-70
2022/04/14 12:49:57;;;;;;;;;;;;;;;21.66;28.19;99909.41;4880935;29;19925;-70
2022/04/14 12:52:26;;;;;;;;;;;;;;;21.67;28.22;99905.91;4880946;29;19980;-70
2022/04/14 12:54:56;;;;;;;;;;;;;;;21.56;27.74;99902.91;4880837;29;19930;-70
2022/04/14 12:57:25;;;;;;;;;;;;;;;21.57;26.57;99899.44;4878771;29;19935;-70
2022/04/14 13:00:08;;;;;;;;;;;;;;;21.52;26.72;99890.97;4880753;29;19935;-69